sensor_id;sensor_type;location;lat;lon;timestamp;temperature;humidity
24645;DHT22;12780;45.502;9.146;2022-08-19T00:01:21;22.30;99.90
24645;DHT22;12780;45.502;9.146;2022-08-19T00:03:47;22.20;99.90
24645;DHT22;12780;45.502;9.146;2022-08-19T00:06:14;22.30;99.90
24645;DHT22;12780;45.502;9.146;2022-08-19T00:08:40;22.20;99.90
24645;DHT22;12780;45.502;9.146;2022-08-19T00:11:06;22.20;99.90
24645;DHT22;12780;45.502;9.146;2022-08-19T00:13:33;22.30;99.90
24645;DHT22;12780;45.502;9.146;2022-08-19T00:15:59;22.30;99.90
24645;DHT22;12780;45.502;9.146;2022-08-19T00:18:25;22.20;99.90
24645;DHT22;12780;45.502;9.146;2022-08-19T00:20:51;22.20;99.90
24645;DHT22;12780;45.502;9.146;2022-08-19T00:23:17;22.30;99.90
24645;DHT22;12780;45.502;9.146;2022-08-19T00:25:42;22.20;99.90
24645;DHT22;12780;45.502;9.146;2022-08-19T00:28:08;22.20;99.90
24645;DHT22;12780;45.502;9.146;2022-08-19T00:30:33;22.20;99.90
24645;DHT22;12780;45.502;9.146;2022-08-19T00:32:59;22.20;99.90
24645;DHT22;12780;45.502;9.146;2022-08-19T00:35:25;22.30;99.90
24645;DHT22;12780;45.502;9.146;2022-08-19T00:37:52;22.30;99.90
24645;DHT22;12780;45.502;9.146;2022-08-19T00:40:21;22.40;99.90
24645;DHT22;12780;45.502;9.146;2022-08-19T00:42:47;22.40;99.90
24645;DHT22;12780;45.502;9.146;2022-08-19T00:45:21;22.50;99.90
24645;DHT22;12780;45.502;9.146;2022-08-19T00:47:48;22.40;99.90
24645;DHT22;12780;45.502;9.146;2022-08-19T00:50:17;22.40;99.90
24645;DHT22;12780;45.502;9.146;2022-08-19T00:52:46;22.40;99.90
24645;DHT22;12780;45.502;9.146;2022-08-19T00:55:22;22.40;99.90
24645;DHT22;12780;45.502;9.146;2022-08-19T00:57:53;22.40;99.90
24645;DHT22;12780;45.502;9.146;2022-08-19T01:00:22;22.40;99.90
24645;DHT22;12780;45.502;9.146;2022-08-19T01:02:49;22.50;99.90
24645;DHT22;12780;45.502;9.146;2022-08-19T01:05:18;22.50;99.90
24645;DHT22;12780;45.502;9.146;2022-08-19T01:07:45;22.40;99.90
24645;DHT22;12780;45.502;9.146;2022-08-19T01:10:14;22.50;99.90
24645;DHT22;12780;45.502;9.146;2022-08-19T01:12:40;22.40;99.90
24645;DHT22;12780;45.502;9.146;2022-08-19T01:15:09;22.40;99.90
24645;DHT22;12780;45.502;9.146;2022-08-19T01:17:36;22.30;99.90
24645;DHT22;12780;45.502;9.146;2022-08-19T01:20:04;22.30;99.90
24645;DHT22;12780;45.502;9.146;2022-08-19T01:22:39;22.30;99.90
24645;DHT22;12780;45.502;9.146;2022-08-19T01:25:06;22.30;99.90
24645;DHT22;12780;45.502;9.146;2022-08-19T01:27:43;22.30;99.90
24645;DHT22;12780;45.502;9.146;2022-08-19T01:30:15;22.30;99.90
24645;DHT22;12780;45.502;9.146;2022-08-19T01:32:41;22.30;99.90
24645;DHT22;12780;45.502;9.146;2022-08-19T01:35:08;22.30;99.90
24645;DHT22;12780;45.502;9.146;2022-08-19T01:40:16;22.20;99.90
24645;DHT22;12780;45.502;9.146;2022-08-19T01:42:42;22.20;99.90
24645;DHT22;12780;45.502;9.146;2022-08-19T01:45:07;22.20;99.90
24645;DHT22;12780;45.502;9.146;2022-08-19T01:47:35;22.20;99.90
24645;DHT22;12780;45.502;9.146;2022-08-19T01:50:01;22.10;99.90
24645;DHT22;12780;45.502;9.146;2022-08-19T01:52:27;22.10;99.90
24645;DHT22;12780;45.502;9.146;2022-08-19T01:54:53;22.20;99.90
24645;DHT22;12780;45.502;9.146;2022-08-19T01:57:18;22.20;99.90
24645;DHT22;12780;45.502;9.146;2022-08-19T01:59:44;22.20;99.90
24645;DHT22;12780;45.502;9.146;2022-08-19T02:02:10;22.20;99.90
24645;DHT22;12780;45.502;9.146;2022-08-19T02:04:36;22.20;99.90
24645;DHT22;12780;45.502;9.146;2022-08-19T02:07:04;22.20;99.90
24645;DHT22;12780;45.502;9.146;2022-08-19T02:09:31;22.20;99.90
24645;DHT22;12780;45.502;9.146;2022-08-19T02:11:56;22.20;99.90
24645;DHT22;12780;45.502;9.146;2022-08-19T02:14:22;22.30;99.90
24645;DHT22;12780;45.502;9.146;2022-08-19T02:16:48;22.30;99.90
24645;DHT22;12780;45.502;9.146;2022-08-19T02:19:13;22.30;99.90
24645;DHT22;12780;45.502;9.146;2022-08-19T02:21:39;22.30;99.90
24645;DHT22;12780;45.502;9.146;2022-08-19T02:24:04;22.30;99.90
24645;DHT22;12780;45.502;9.146;2022-08-19T02:26:31;22.30;99.90
24645;DHT22;12780;45.502;9.146;2022-08-19T02:28:57;22.30;99.90
24645;DHT22;12780;45.502;9.146;2022-08-19T02:31:24;22.30;99.90
24645;DHT22;12780;45.502;9.146;2022-08-19T02:33:50;22.20;99.90
24645;DHT22;12780;45.502;9.146;2022-08-19T02:36:17;22.20;99.90
24645;DHT22;12780;45.502;9.146;2022-08-19T02:38:43;22.10;99.90
24645;DHT22;12780;45.502;9.146;2022-08-19T02:41:22;22.10;99.90
24645;DHT22;12780;45.502;9.146;2022-08-19T02:43:48;22.00;99.90
24645;DHT22;12780;45.502;9.146;2022-08-19T02:46:20;22.10;99.90
24645;DHT22;12780;45.502;9.146;2022-08-19T02:48:51;22.00;99.90
24645;DHT22;12780;45.502;9.146;2022-08-19T02:51:19;22.00;99.90
24645;DHT22;12780;45.502;9.146;2022-08-19T02:53:45;22.00;99.90
24645;DHT22;12780;45.502;9.146;2022-08-19T02:56:11;22.00;99.90
24645;DHT22;12780;45.502;9.146;2022-08-19T02:58:36;22.00;99.90
24645;DHT22;12780;45.502;9.146;2022-08-19T03:01:02;22.00;99.90
24645;DHT22;12780;45.502;9.146;2022-08-19T03:03:28;22.00;99.90
24645;DHT22;12780;45.502;9.146;2022-08-19T03:06:09;22.00;99.90
24645;DHT22;12780;45.502;9.146;2022-08-19T03:08:35;21.90;99.90
24645;DHT22;12780;45.502;9.146;2022-08-19T03:11:01;22.00;99.90
24645;DHT22;12780;45.502;9.146;2022-08-19T03:13:27;22.00;99.90
24645;DHT22;12780;45.502;9.146;2022-08-19T03:15:53;22.00;99.90
24645;DHT22;12780;45.502;9.146;2022-08-19T03:18:19;22.00;99.90
24645;DHT22;12780;45.502;9.146;2022-08-19T03:20:50;22.00;99.90
24645;DHT22;12780;45.502;9.146;2022-08-19T03:23:17;22.00;99.90
24645;DHT22;12780;45.502;9.146;2022-08-19T03:25:45;22.10;99.90
24645;DHT22;12780;45.502;9.146;2022-08-19T03:28:13;22.10;99.90
24645;DHT22;12780;45.502;9.146;2022-08-19T03:30:40;22.10;99.90
24645;DHT22;12780;45.502;9.146;2022-08-19T03:33:07;22.00;99.90
24645;DHT22;12780;45.502;9.146;2022-08-19T03:35:32;21.90;99.90
24645;DHT22;12780;45.502;9.146;2022-08-19T03:37:59;21.90;99.90
24645;DHT22;12780;45.502;9.146;2022-08-19T03:40:25;21.80;99.90
24645;DHT22;12780;45.502;9.146;2022-08-19T03:42:51;21.80;99.90
24645;DHT22;12780;45.502;9.146;2022-08-19T03:45:17;21.80;99.90
24645;DHT22;12780;45.502;9.146;2022-08-19T03:47:43;21.80;99.90
24645;DHT22;12780;45.502;9.146;2022-08-19T03:50:09;21.80;99.90
24645;DHT22;12780;45.502;9.146;2022-08-19T03:52:35;21.80;99.90
24645;DHT22;12780;45.502;9.146;2022-08-19T03:55:01;21.80;99.90
24645;DHT22;12780;45.502;9.146;2022-08-19T03:57:27;21.90;99.90
24645;DHT22;12780;45.502;9.146;2022-08-19T03:59:52;21.90;99.90
24645;DHT22;12780;45.502;9.146;2022-08-19T04:02:18;21.90;99.90
24645;DHT22;12780;45.502;9.146;2022-08-19T04:04:44;22.00;99.90
24645;DHT22;12780;45.502;9.146;2022-08-19T04:07:10;22.00;99.90
24645;DHT22;12780;45.502;9.146;2022-08-19T04:09:37;22.00;99.90
24645;DHT22;12780;45.502;9.146;2022-08-19T04:12:03;22.00;99.90
24645;DHT22;12780;45.502;9.146;2022-08-19T04:14:31;22.00;99.90
24645;DHT22;12780;45.502;9.146;2022-08-19T04:16:58;22.00;99.90
24645;DHT22;12780;45.502;9.146;2022-08-19T04:19:25;22.00;99.90
24645;DHT22;12780;45.502;9.146;2022-08-19T04:21:53;22.00;99.90
24645;DHT22;12780;45.502;9.146;2022-08-19T04:24:20;21.90;99.90
24645;DHT22;12780;45.502;9.146;2022-08-19T04:26:46;22.00;99.90
24645;DHT22;12780;45.502;9.146;2022-08-19T04:29:18;22.00;99.90
24645;DHT22;12780;45.502;9.146;2022-08-19T04:31:45;22.00;99.90
24645;DHT22;12780;45.502;9.146;2022-08-19T04:34:12;22.00;99.90
24645;DHT22;12780;45.502;9.146;2022-08-19T04:36:39;22.00;99.90
24645;DHT22;12780;45.502;9.146;2022-08-19T04:39:09;21.90;99.90
24645;DHT22;12780;45.502;9.146;2022-08-19T04:41:35;21.90;99.90
24645;DHT22;12780;45.502;9.146;2022-08-19T04:44:20;22.00;99.90
24645;DHT22;12780;45.502;9.146;2022-08-19T04:46:47;22.00;99.90
24645;DHT22;12780;45.502;9.146;2022-08-19T04:49:13;22.00;99.90
24645;DHT22;12780;45.502;9.146;2022-08-19T04:51:42;22.00;99.90
24645;DHT22;12780;45.502;9.146;2022-08-19T04:54:08;21.90;99.90
24645;DHT22;12780;45.502;9.146;2022-08-19T04:56:34;22.00;99.90
24645;DHT22;12780;45.502;9.146;2022-08-19T04:59:00;22.00;99.90
24645;DHT22;12780;45.502;9.146;2022-08-19T05:01:30;22.00;99.90
24645;DHT22;12780;45.502;9.146;2022-08-19T05:03:58;22.00;99.90
24645;DHT22;12780;45.502;9.146;2022-08-19T05:06:24;22.00;99.90
24645;DHT22;12780;45.502;9.146;2022-08-19T05:08:51;22.00;99.90
24645;DHT22;12780;45.502;9.146;2022-08-19T05:11:22;21.90;99.90
24645;DHT22;12780;45.502;9.146;2022-08-19T05:13:49;21.90;99.90
24645;DHT22;12780;45.502;9.146;2022-08-19T05:16:16;21.80;99.90
24645;DHT22;12780;45.502;9.146;2022-08-19T05:18:43;21.60;99.90
24645;DHT22;12780;45.502;9.146;2022-08-19T05:21:28;21.50;99.90
24645;DHT22;12780;45.502;9.146;2022-08-19T05:24:12;21.50;99.90
24645;DHT22;12780;45.502;9.146;2022-08-19T05:26:41;21.50;99.90
24645;DHT22;12780;45.502;9.146;2022-08-19T05:29:08;21.60;99.90
24645;DHT22;12780;45.502;9.146;2022-08-19T05:31:35;21.60;99.90
24645;DHT22;12780;45.502;9.146;2022-08-19T05:34:01;21.50;99.90
24645;DHT22;12780;45.502;9.146;2022-08-19T05:36:29;21.50;99.90
24645;DHT22;12780;45.502;9.146;2022-08-19T05:38:58;21.50;99.90
24645;DHT22;12780;45.502;9.146;2022-08-19T05:41:23;21.50;99.90
24645;DHT22;12780;45.502;9.146;2022-08-19T05:43:55;21.60;99.90
24645;DHT22;12780;45.502;9.146;2022-08-19T05:46:22;21.60;99.90
24645;DHT22;12780;45.502;9.146;2022-08-19T05:48:48;21.60;99.90
24645;DHT22;12780;45.502;9.146;2022-08-19T05:51:14;21.60;99.90
24645;DHT22;12780;45.502;9.146;2022-08-19T05:53:42;21.60;99.90
24645;DHT22;12780;45.502;9.146;2022-08-19T05:56:12;21.60;99.90
24645;DHT22;12780;45.502;9.146;2022-08-19T05:58:41;21.70;99.90
24645;DHT22;12780;45.502;9.146;2022-08-19T06:01:13;21.70;99.90
24645;DHT22;12780;45.502;9.146;2022-08-19T06:03:39;21.80;99.90
24645;DHT22;12780;45.502;9.146;2022-08-19T06:06:06;21.90;99.90
24645;DHT22;12780;45.502;9.146;2022-08-19T06:08:33;21.90;99.90
24645;DHT22;12780;45.502;9.146;2022-08-19T06:11:16;21.90;99.90
24645;DHT22;12780;45.502;9.146;2022-08-19T06:13:44;21.90;99.90
24645;DHT22;12780;45.502;9.146;2022-08-19T06:16:12;21.80;99.90
24645;DHT22;12780;45.502;9.146;2022-08-19T06:18:38;21.60;99.90
24645;DHT22;12780;45.502;9.146;2022-08-19T06:21:03;21.50;99.90
24645;DHT22;12780;45.502;9.146;2022-08-19T06:23:30;21.50;99.90
24645;DHT22;12780;45.502;9.146;2022-08-19T06:25:56;21.60;99.90
24645;DHT22;12780;45.502;9.146;2022-08-19T06:28:22;21.60;99.90
24645;DHT22;12780;45.502;9.146;2022-08-19T06:30:49;21.70;99.90
24645;DHT22;12780;45.502;9.146;2022-08-19T06:33:15;21.80;99.90
24645;DHT22;12780;45.502;9.146;2022-08-19T06:35:41;21.80;99.90
24645;DHT22;12780;45.502;9.146;2022-08-19T06:38:07;21.90;99.90
24645;DHT22;12780;45.502;9.146;2022-08-19T06:40:33;21.90;99.90
24645;DHT22;12780;45.502;9.146;2022-08-19T06:42:59;21.90;99.90
24645;DHT22;12780;45.502;9.146;2022-08-19T06:45:26;22.00;99.90
24645;DHT22;12780;45.502;9.146;2022-08-19T06:47:52;22.00;99.90
24645;DHT22;12780;45.502;9.146;2022-08-19T06:50:22;22.00;99.90
24645;DHT22;12780;45.502;9.146;2022-08-19T06:52:47;22.00;99.90
24645;DHT22;12780;45.502;9.146;2022-08-19T06:55:14;22.00;99.90
24645;DHT22;12780;45.502;9.146;2022-08-19T06:57:41;22.00;99.90
24645;DHT22;12780;45.502;9.146;2022-08-19T07:00:09;21.90;99.90
24645;DHT22;12780;45.502;9.146;2022-08-19T07:02:43;21.90;99.90
24645;DHT22;12780;45.502;9.146;2022-08-19T07:05:10;21.90;99.90
24645;DHT22;12780;45.502;9.146;2022-08-19T07:07:35;21.90;99.90
24645;DHT22;12780;45.502;9.146;2022-08-19T07:10:01;21.90;99.90
24645;DHT22;12780;45.502;9.146;2022-08-19T07:12:29;22.00;99.90
24645;DHT22;12780;45.502;9.146;2022-08-19T07:14:58;22.10;99.90
24645;DHT22;12780;45.502;9.146;2022-08-19T07:17:24;22.20;99.90
24645;DHT22;12780;45.502;9.146;2022-08-19T07:19:50;22.30;99.90
24645;DHT22;12780;45.502;9.146;2022-08-19T07:22:16;22.40;99.90
24645;DHT22;12780;45.502;9.146;2022-08-19T07:24:43;22.40;99.90
24645;DHT22;12780;45.502;9.146;2022-08-19T07:27:08;22.50;99.90
24645;DHT22;12780;45.502;9.146;2022-08-19T07:29:36;22.70;99.90
24645;DHT22;12780;45.502;9.146;2022-08-19T07:32:03;22.70;99.90
24645;DHT22;12780;45.502;9.146;2022-08-19T07:34:30;22.70;99.90
24645;DHT22;12780;45.502;9.146;2022-08-19T07:36:56;22.70;99.90
24645;DHT22;12780;45.502;9.146;2022-08-19T07:39:26;22.70;99.90
24645;DHT22;12780;45.502;9.146;2022-08-19T07:41:54;22.60;99.90
24645;DHT22;12780;45.502;9.146;2022-08-19T07:44:20;22.60;99.90
24645;DHT22;12780;45.502;9.146;2022-08-19T07:46:50;22.60;99.90
24645;DHT22;12780;45.502;9.146;2022-08-19T07:49:17;22.70;99.90
24645;DHT22;12780;45.502;9.146;2022-08-19T07:52:03;22.70;99.90
24645;DHT22;12780;45.502;9.146;2022-08-19T07:54:32;22.70;99.90
24645;DHT22;12780;45.502;9.146;2022-08-19T07:57:00;22.80;99.90
24645;DHT22;12780;45.502;9.146;2022-08-19T07:59:26;23.00;99.90
24645;DHT22;12780;45.502;9.146;2022-08-19T08:01:52;23.00;99.90
24645;DHT22;12780;45.502;9.146;2022-08-19T08:04:18;23.00;99.90
24645;DHT22;12780;45.502;9.146;2022-08-19T08:07:03;23.10;99.90
24645;DHT22;12780;45.502;9.146;2022-08-19T08:09:48;23.10;99.90
24645;DHT22;12780;45.502;9.146;2022-08-19T08:12:17;23.20;99.90
24645;DHT22;12780;45.502;9.146;2022-08-19T08:14:49;23.30;99.90
24645;DHT22;12780;45.502;9.146;2022-08-19T08:17:17;23.40;99.90
24645;DHT22;12780;45.502;9.146;2022-08-19T08:19:44;23.50;99.90
24645;DHT22;12780;45.502;9.146;2022-08-19T08:22:11;23.70;99.90
24645;DHT22;12780;45.502;9.146;2022-08-19T08:25:08;23.70;99.90
24645;DHT22;12780;45.502;9.146;2022-08-19T08:27:39;23.70;99.90
24645;DHT22;12780;45.502;9.146;2022-08-19T08:30:15;23.80;99.90
24645;DHT22;12780;45.502;9.146;2022-08-19T08:32:42;23.70;99.90
24645;DHT22;12780;45.502;9.146;2022-08-19T08:35:10;23.70;99.90
24645;DHT22;12780;45.502;9.146;2022-08-19T08:37:37;23.90;99.90
24645;DHT22;12780;45.502;9.146;2022-08-19T08:40:06;24.00;99.90
24645;DHT22;12780;45.502;9.146;2022-08-19T08:42:36;24.20;99.90
24645;DHT22;12780;45.502;9.146;2022-08-19T08:45:10;24.40;99.90
24645;DHT22;12780;45.502;9.146;2022-08-19T08:47:38;24.50;99.90
24645;DHT22;12780;45.502;9.146;2022-08-19T08:50:10;24.60;99.90
24645;DHT22;12780;45.502;9.146;2022-08-19T08:52:44;24.60;99.90
24645;DHT22;12780;45.502;9.146;2022-08-19T08:55:16;24.80;99.90
24645;DHT22;12780;45.502;9.146;2022-08-19T09:02:53;24.80;99.90
24645;DHT22;12780;45.502;9.146;2022-08-19T09:05:20;24.90;99.90
24645;DHT22;12780;45.502;9.146;2022-08-19T09:08:07;24.90;99.90
24645;DHT22;12780;45.502;9.146;2022-08-19T09:10:44;25.00;99.90
24645;DHT22;12780;45.502;9.146;2022-08-19T09:16:00;25.20;99.90
24645;DHT22;12780;45.502;9.146;2022-08-19T09:18:45;25.10;99.90
24645;DHT22;12780;45.502;9.146;2022-08-19T09:21:13;25.10;99.90
24645;DHT22;12780;45.502;9.146;2022-08-19T09:23:39;25.10;99.90
24645;DHT22;12780;45.502;9.146;2022-08-19T09:26:10;24.90;99.90
24645;DHT22;12780;45.502;9.146;2022-08-19T09:28:39;24.80;99.90
24645;DHT22;12780;45.502;9.146;2022-08-19T09:31:11;24.80;99.90
24645;DHT22;12780;45.502;9.146;2022-08-19T09:33:37;24.70;99.90
24645;DHT22;12780;45.502;9.146;2022-08-19T09:36:08;24.70;99.90
24645;DHT22;12780;45.502;9.146;2022-08-19T09:38:36;24.70;99.90
24645;DHT22;12780;45.502;9.146;2022-08-19T09:41:07;24.70;99.90
24645;DHT22;12780;45.502;9.146;2022-08-19T09:43:33;24.80;99.90
24645;DHT22;12780;45.502;9.146;2022-08-19T09:46:02;24.90;99.90
24645;DHT22;12780;45.502;9.146;2022-08-19T09:48:31;25.00;99.90
24645;DHT22;12780;45.502;9.146;2022-08-19T09:51:03;25.20;99.90
24645;DHT22;12780;45.502;9.146;2022-08-19T09:53:29;25.30;99.90
24645;DHT22;12780;45.502;9.146;2022-08-19T09:55:55;25.40;99.90
24645;DHT22;12780;45.502;9.146;2022-08-19T09:58:21;25.60;99.90
24645;DHT22;12780;45.502;9.146;2022-08-19T10:00:48;25.80;99.90
24645;DHT22;12780;45.502;9.146;2022-08-19T10:03:13;25.90;99.90
24645;DHT22;12780;45.502;9.146;2022-08-19T10:05:39;25.90;99.90
24645;DHT22;12780;45.502;9.146;2022-08-19T10:08:17;25.80;99.90
24645;DHT22;12780;45.502;9.146;2022-08-19T10:10:44;25.80;99.90
24645;DHT22;12780;45.502;9.146;2022-08-19T10:13:10;26.00;99.90
24645;DHT22;12780;45.502;9.146;2022-08-19T10:15:36;26.10;99.90
24645;DHT22;12780;45.502;9.146;2022-08-19T10:18:05;26.20;99.90
24645;DHT22;12780;45.502;9.146;2022-08-19T10:20:31;26.30;99.90
24645;DHT22;12780;45.502;9.146;2022-08-19T10:22:56;26.30;99.90
24645;DHT22;12780;45.502;9.146;2022-08-19T10:25:23;26.40;99.90
24645;DHT22;12780;45.502;9.146;2022-08-19T10:27:48;26.40;99.90
24645;DHT22;12780;45.502;9.146;2022-08-19T10:30:14;26.50;99.90
24645;DHT22;12780;45.502;9.146;2022-08-19T10:32:40;26.50;99.90
24645;DHT22;12780;45.502;9.146;2022-08-19T10:35:05;26.50;99.90
24645;DHT22;12780;45.502;9.146;2022-08-19T10:37:35;26.30;99.90
24645;DHT22;12780;45.502;9.146;2022-08-19T10:40:04;26.30;99.90
24645;DHT22;12780;45.502;9.146;2022-08-19T10:42:31;26.50;99.90
24645;DHT22;12780;45.502;9.146;2022-08-19T10:44:57;26.50;99.90
24645;DHT22;12780;45.502;9.146;2022-08-19T10:47:22;26.50;99.90
24645;DHT22;12780;45.502;9.146;2022-08-19T10:49:49;26.60;99.90
24645;DHT22;12780;45.502;9.146;2022-08-19T10:52:33;26.70;99.90
24645;DHT22;12780;45.502;9.146;2022-08-19T10:55:05;26.80;99.90
24645;DHT22;12780;45.502;9.146;2022-08-19T10:57:50;26.60;99.90
24645;DHT22;12780;45.502;9.146;2022-08-19T11:00:16;26.50;99.90
24645;DHT22;12780;45.502;9.146;2022-08-19T11:02:41;26.40;99.90
24645;DHT22;12780;45.502;9.146;2022-08-19T11:05:08;26.40;99.90
24645;DHT22;12780;45.502;9.146;2022-08-19T11:07:37;26.40;99.90
24645;DHT22;12780;45.502;9.146;2022-08-19T11:10:04;26.50;99.90
24645;DHT22;12780;45.502;9.146;2022-08-19T11:12:29;26.60;99.90
24645;DHT22;12780;45.502;9.146;2022-08-19T11:14:55;26.80;99.90
24645;DHT22;12780;45.502;9.146;2022-08-19T11:17:21;26.90;99.90
24645;DHT22;12780;45.502;9.146;2022-08-19T11:19:49;27.00;99.90
24645;DHT22;12780;45.502;9.146;2022-08-19T11:22:15;27.00;99.90
24645;DHT22;12780;45.502;9.146;2022-08-19T11:24:41;26.90;99.90
24645;DHT22;12780;45.502;9.146;2022-08-19T11:27:08;26.90;99.90
24645;DHT22;12780;45.502;9.146;2022-08-19T11:29:37;26.90;99.90
24645;DHT22;12780;45.502;9.146;2022-08-19T11:32:06;26.90;99.90
24645;DHT22;12780;45.502;9.146;2022-08-19T11:34:32;27.00;99.90
24645;DHT22;12780;45.502;9.146;2022-08-19T11:36:58;27.00;99.90
24645;DHT22;12780;45.502;9.146;2022-08-19T11:39:26;27.10;99.90
24645;DHT22;12780;45.502;9.146;2022-08-19T11:41:52;27.20;99.90
24645;DHT22;12780;45.502;9.146;2022-08-19T11:44:18;27.10;99.90
24645;DHT22;12780;45.502;9.146;2022-08-19T11:46:45;27.20;99.90
24645;DHT22;12780;45.502;9.146;2022-08-19T11:49:12;27.50;99.90
24645;DHT22;12780;45.502;9.146;2022-08-19T11:51:38;27.70;99.90
24645;DHT22;12780;45.502;9.146;2022-08-19T11:54:05;28.10;99.90
24645;DHT22;12780;45.502;9.146;2022-08-19T11:56:31;28.30;99.90
24645;DHT22;12780;45.502;9.146;2022-08-19T11:58:57;28.40;99.90
24645;DHT22;12780;45.502;9.146;2022-08-19T12:01:25;28.60;99.90
24645;DHT22;12780;45.502;9.146;2022-08-19T12:03:53;28.60;99.90
24645;DHT22;12780;45.502;9.146;2022-08-19T12:06:25;28.50;99.90
24645;DHT22;12780;45.502;9.146;2022-08-19T12:08:55;28.50;99.90
24645;DHT22;12780;45.502;9.146;2022-08-19T12:11:21;28.40;99.90
24645;DHT22;12780;45.502;9.146;2022-08-19T12:13:47;28.30;99.90
24645;DHT22;12780;45.502;9.146;2022-08-19T12:16:18;28.30;99.90
24645;DHT22;12780;45.502;9.146;2022-08-19T12:18:45;28.20;99.90
24645;DHT22;12780;45.502;9.146;2022-08-19T12:21:21;28.20;99.90
24645;DHT22;12780;45.502;9.146;2022-08-19T12:23:48;28.10;99.90
24645;DHT22;12780;45.502;9.146;2022-08-19T12:26:14;28.20;99.90
24645;DHT22;12780;45.502;9.146;2022-08-19T12:28:40;28.30;99.90
24645;DHT22;12780;45.502;9.146;2022-08-19T12:31:07;28.30;99.90
24645;DHT22;12780;45.502;9.146;2022-08-19T12:33:33;28.40;99.90
24645;DHT22;12780;45.502;9.146;2022-08-19T12:36:04;28.50;99.90
24645;DHT22;12780;45.502;9.146;2022-08-19T12:38:31;28.50;99.90
24645;DHT22;12780;45.502;9.146;2022-08-19T12:40:57;28.50;99.90
24645;DHT22;12780;45.502;9.146;2022-08-19T12:43:23;28.50;99.90
24645;DHT22;12780;45.502;9.146;2022-08-19T12:45:49;28.50;99.90
24645;DHT22;12780;45.502;9.146;2022-08-19T12:48:14;28.60;99.90
24645;DHT22;12780;45.502;9.146;2022-08-19T12:50:42;28.60;99.90
24645;DHT22;12780;45.502;9.146;2022-08-19T12:53:10;28.70;99.90
24645;DHT22;12780;45.502;9.146;2022-08-19T12:55:35;28.70;99.90
24645;DHT22;12780;45.502;9.146;2022-08-19T12:58:01;28.70;99.90
24645;DHT22;12780;45.502;9.146;2022-08-19T13:00:27;28.50;99.90
24645;DHT22;12780;45.502;9.146;2022-08-19T13:02:53;28.50;99.90
24645;DHT22;12780;45.502;9.146;2022-08-19T13:05:22;28.40;99.90
24645;DHT22;12780;45.502;9.146;2022-08-19T13:07:49;28.40;99.90
24645;DHT22;12780;45.502;9.146;2022-08-19T13:10:17;28.30;99.90
24645;DHT22;12780;45.502;9.146;2022-08-19T13:12:45;28.20;99.90
24645;DHT22;12780;45.502;9.146;2022-08-19T13:15:11;28.20;99.90
24645;DHT22;12780;45.502;9.146;2022-08-19T13:17:38;28.20;99.90
24645;DHT22;12780;45.502;9.146;2022-08-19T13:20:04;28.20;99.90
24645;DHT22;12780;45.502;9.146;2022-08-19T13:22:33;28.30;99.90
24645;DHT22;12780;45.502;9.146;2022-08-19T13:24:58;28.40;99.90
24645;DHT22;12780;45.502;9.146;2022-08-19T13:27:24;28.50;99.90
24645;DHT22;12780;45.502;9.146;2022-08-19T13:29:50;28.60;99.90
24645;DHT22;12780;45.502;9.146;2022-08-19T13:32:34;28.70;99.90
24645;DHT22;12780;45.502;9.146;2022-08-19T13:35:18;28.90;99.90
24645;DHT22;12780;45.502;9.146;2022-08-19T13:37:44;28.90;99.90
24645;DHT22;12780;45.502;9.146;2022-08-19T13:40:18;28.90;99.90
24645;DHT22;12780;45.502;9.146;2022-08-19T13:42:47;28.90;99.90
24645;DHT22;12780;45.502;9.146;2022-08-19T13:45:15;28.90;99.90
24645;DHT22;12780;45.502;9.146;2022-08-19T13:47:41;28.90;99.90
24645;DHT22;12780;45.502;9.146;2022-08-19T13:50:11;28.80;99.90
24645;DHT22;12780;45.502;9.146;2022-08-19T13:52:38;28.70;99.90
24645;DHT22;12780;45.502;9.146;2022-08-19T13:55:04;28.70;99.90
24645;DHT22;12780;45.502;9.146;2022-08-19T13:57:30;28.70;99.90
24645;DHT22;12780;45.502;9.146;2022-08-19T13:59:58;28.70;99.90
24645;DHT22;12780;45.502;9.146;2022-08-19T14:02:24;28.60;99.90
24645;DHT22;12780;45.502;9.146;2022-08-19T14:04:50;28.70;99.90
24645;DHT22;12780;45.502;9.146;2022-08-19T14:07:15;28.70;99.90
24645;DHT22;12780;45.502;9.146;2022-08-19T14:09:41;28.70;99.90
24645;DHT22;12780;45.502;9.146;2022-08-19T14:12:07;28.80;99.90
24645;DHT22;12780;45.502;9.146;2022-08-19T14:14:39;28.90;99.90
24645;DHT22;12780;45.502;9.146;2022-08-19T14:17:08;28.90;99.90
24645;DHT22;12780;45.502;9.146;2022-08-19T14:19:34;28.90;99.90
24645;DHT22;12780;45.502;9.146;2022-08-19T14:22:00;28.80;99.90
24645;DHT22;12780;45.502;9.146;2022-08-19T14:24:26;28.70;99.90
24645;DHT22;12780;45.502;9.146;2022-08-19T14:26:52;28.60;99.90
24645;DHT22;12780;45.502;9.146;2022-08-19T14:29:18;28.50;99.90
24645;DHT22;12780;45.502;9.146;2022-08-19T14:31:43;28.40;99.90
24645;DHT22;12780;45.502;9.146;2022-08-19T14:34:09;28.40;99.90
24645;DHT22;12780;45.502;9.146;2022-08-19T14:36:36;28.30;99.90
24645;DHT22;12780;45.502;9.146;2022-08-19T14:39:03;28.30;99.90
24645;DHT22;12780;45.502;9.146;2022-08-19T14:41:28;28.30;99.90
24645;DHT22;12780;45.502;9.146;2022-08-19T14:43:56;28.30;99.90
24645;DHT22;12780;45.502;9.146;2022-08-19T14:46:27;28.20;99.90
24645;DHT22;12780;45.502;9.146;2022-08-19T14:48:54;28.20;99.90
24645;DHT22;12780;45.502;9.146;2022-08-19T14:51:22;28.30;99.90
24645;DHT22;12780;45.502;9.146;2022-08-19T14:53:48;28.30;99.90
24645;DHT22;12780;45.502;9.146;2022-08-19T14:56:17;28.20;99.90
24645;DHT22;12780;45.502;9.146;2022-08-19T14:58:43;28.30;99.90
24645;DHT22;12780;45.502;9.146;2022-08-19T15:01:11;28.30;99.90
24645;DHT22;12780;45.502;9.146;2022-08-19T15:03:37;28.30;99.90
24645;DHT22;12780;45.502;9.146;2022-08-19T15:06:06;28.20;99.90
24645;DHT22;12780;45.502;9.146;2022-08-19T15:08:34;28.10;99.90
24645;DHT22;12780;45.502;9.146;2022-08-19T15:11:01;28.20;99.90
24645;DHT22;12780;45.502;9.146;2022-08-19T15:13:28;28.30;99.90
24645;DHT22;12780;45.502;9.146;2022-08-19T15:15:55;28.30;99.90
24645;DHT22;12780;45.502;9.146;2022-08-19T15:18:21;28.40;99.90
24645;DHT22;12780;45.502;9.146;2022-08-19T15:20:48;28.40;99.90
24645;DHT22;12780;45.502;9.146;2022-08-19T15:23:15;28.40;99.90
24645;DHT22;12780;45.502;9.146;2022-08-19T15:25:42;28.40;99.90
24645;DHT22;12780;45.502;9.146;2022-08-19T15:28:08;28.40;99.90
24645;DHT22;12780;45.502;9.146;2022-08-19T15:30:37;28.30;99.90
24645;DHT22;12780;45.502;9.146;2022-08-19T15:33:03;28.40;99.90
24645;DHT22;12780;45.502;9.146;2022-08-19T15:35:28;28.40;99.90
24645;DHT22;12780;45.502;9.146;2022-08-19T15:37:55;28.40;99.90
24645;DHT22;12780;45.502;9.146;2022-08-19T15:40:22;28.30;99.90
24645;DHT22;12780;45.502;9.146;2022-08-19T15:42:48;28.20;99.90
24645;DHT22;12780;45.502;9.146;2022-08-19T15:45:15;28.20;99.90